Terminal Aerodrome Forecast
Issued by NWS Blacksburg, VA

Home | Current Version | Previous Version | Text Only | Print | Product List | Glossary On
Versions: 1 2 3 4 5 6 7 8 9 10 11 12 13 14 15 16 17 18 19 20 21 22 23 24 25 26 27 28 29 30 31
000
FTUS41 KRNK 180540
TAFLYH
TAF
KLYH 180540Z 1806/1906 VRB03KT P6SM BKN200
     FM180900 00000KT 3SM BR SCT005 SCT200
     FM181330 04007KT P6SM SCT025
     FM181800 08006KT P6SM SCT040
     FM190000 05003KT P6SM BKN100=

USA.gov is the U.S. government's official web portal to all federal, state and local government web resources and services.